sensor_id;sensor_type;location;lat;lon;timestamp;P1;durP1;ratioP1;P2;durP2;ratioP2
16524;SDS011;8375;33.594;-117.718;2022-08-21T00:02:22;9.35;;;5.75;;
16524;SDS011;8375;33.594;-117.718;2022-08-21T00:04:54;12.10;;;6.55;;
16524;SDS011;8375;33.594;-117.718;2022-08-21T00:07:39;9.15;;;6.20;;
16524;SDS011;8375;33.594;-117.718;2022-08-21T00:10:08;9.63;;;6.75;;
16524;SDS011;8375;33.594;-117.718;2022-08-21T00:12:38;13.65;;;6.78;;
16524;SDS011;8375;33.594;-117.718;2022-08-21T00:15:08;10.80;;;6.40;;
16524;SDS011;8375;33.594;-117.718;2022-08-21T00:17:58;9.57;;;6.45;;
16524;SDS011;8375;33.594;-117.718;2022-08-21T00:20:27;12.15;;;6.30;;
16524;SDS011;8375;33.594;-117.718;2022-08-21T00:23:07;9.33;;;6.50;;
16524;SDS011;8375;33.594;-117.718;2022-08-21T00:25:37;9.23;;;6.27;;
16524;SDS011;8375;33.594;-117.718;2022-08-21T00:28:06;10.30;;;6.57;;
16524;SDS011;8375;33.594;-117.718;2022-08-21T00:30:36;14.25;;;6.72;;
16524;SDS011;8375;33.594;-117.718;2022-08-21T00:33:08;8.90;;;6.22;;
16524;SDS011;8375;33.594;-117.718;2022-08-21T00:35:39;10.75;;;6.40;;
16524;SDS011;8375;33.594;-117.718;2022-08-21T00:38:10;12.27;;;7.03;;
16524;SDS011;8375;33.594;-117.718;2022-08-21T00:40:42;10.32;;;6.25;;
16524;SDS011;8375;33.594;-117.718;2022-08-21T00:43:14;12.55;;;6.82;;
16524;SDS011;8375;33.594;-117.718;2022-08-21T00:45:49;9.48;;;6.72;;
16524;SDS011;8375;33.594;-117.718;2022-08-21T00:48:23;11.77;;;6.43;;
16524;SDS011;8375;33.594;-117.718;2022-08-21T00:50:54;13.10;;;6.78;;
16524;SDS011;8375;33.594;-117.718;2022-08-21T00:53:28;12.13;;;6.57;;
16524;SDS011;8375;33.594;-117.718;2022-08-21T00:55:57;12.50;;;6.83;;
16524;SDS011;8375;33.594;-117.718;2022-08-21T00:58:28;9.47;;;6.00;;
16524;SDS011;8375;33.594;-117.718;2022-08-21T01:01:02;10.67;;;6.83;;
16524;SDS011;8375;33.594;-117.718;2022-08-21T01:03:33;10.07;;;6.70;;
16524;SDS011;8375;33.594;-117.718;2022-08-21T01:06:03;9.53;;;6.63;;
16524;SDS011;8375;33.594;-117.718;2022-08-21T01:08:32;10.63;;;6.73;;
16524;SDS011;8375;33.594;-117.718;2022-08-21T01:11:02;10.97;;;6.43;;
16524;SDS011;8375;33.594;-117.718;2022-08-21T01:13:32;15.63;;;6.43;;
16524;SDS011;8375;33.594;-117.718;2022-08-21T01:16:04;10.97;;;6.53;;
16524;SDS011;8375;33.594;-117.718;2022-08-21T01:18:43;9.65;;;6.53;;
16524;SDS011;8375;33.594;-117.718;2022-08-21T01:21:15;12.18;;;7.05;;
16524;SDS011;8375;33.594;-117.718;2022-08-21T01:23:46;14.07;;;6.77;;
16524;SDS011;8375;33.594;-117.718;2022-08-21T01:26:17;12.43;;;6.60;;
16524;SDS011;8375;33.594;-117.718;2022-08-21T01:28:48;12.20;;;6.60;;
16524;SDS011;8375;33.594;-117.718;2022-08-21T01:31:24;11.73;;;7.10;;
16524;SDS011;8375;33.594;-117.718;2022-08-21T01:33:54;10.52;;;6.50;;
16524;SDS011;8375;33.594;-117.718;2022-08-21T01:36:25;12.00;;;7.13;;
16524;SDS011;8375;33.594;-117.718;2022-08-21T01:38:55;10.97;;;6.77;;
16524;SDS011;8375;33.594;-117.718;2022-08-21T01:41:24;11.27;;;6.57;;
16524;SDS011;8375;33.594;-117.718;2022-08-21T01:43:57;11.57;;;7.17;;
16524;SDS011;8375;33.594;-117.718;2022-08-21T01:46:25;13.27;;;7.30;;
16524;SDS011;8375;33.594;-117.718;2022-08-21T01:48:54;12.27;;;6.93;;
16524;SDS011;8375;33.594;-117.718;2022-08-21T01:51:23;12.30;;;7.97;;
16524;SDS011;8375;33.594;-117.718;2022-08-21T01:53:54;14.67;;;7.70;;
16524;SDS011;8375;33.594;-117.718;2022-08-21T01:56:23;15.67;;;7.00;;
16524;SDS011;8375;33.594;-117.718;2022-08-21T01:58:53;12.93;;;7.77;;
16524;SDS011;8375;33.594;-117.718;2022-08-21T02:01:22;12.10;;;7.43;;
16524;SDS011;8375;33.594;-117.718;2022-08-21T02:03:50;14.83;;;6.83;;
16524;SDS011;8375;33.594;-117.718;2022-08-21T02:06:19;12.47;;;7.70;;
16524;SDS011;8375;33.594;-117.718;2022-08-21T02:08:50;10.17;;;7.73;;
16524;SDS011;8375;33.594;-117.718;2022-08-21T02:11:18;13.40;;;8.07;;
16524;SDS011;8375;33.594;-117.718;2022-08-21T02:13:47;13.93;;;7.93;;
16524;SDS011;8375;33.594;-117.718;2022-08-21T02:16:16;14.03;;;7.90;;
16524;SDS011;8375;33.594;-117.718;2022-08-21T02:18:45;12.83;;;8.30;;
16524;SDS011;8375;33.594;-117.718;2022-08-21T02:21:14;13.93;;;8.17;;
16524;SDS011;8375;33.594;-117.718;2022-08-21T02:23:44;13.50;;;8.10;;
16524;SDS011;8375;33.594;-117.718;2022-08-21T02:26:16;12.10;;;7.97;;
16524;SDS011;8375;33.594;-117.718;2022-08-21T02:28:45;12.63;;;8.30;;
16524;SDS011;8375;33.594;-117.718;2022-08-21T02:31:14;15.17;;;8.10;;
16524;SDS011;8375;33.594;-117.718;2022-08-21T02:33:43;14.00;;;8.00;;
16524;SDS011;8375;33.594;-117.718;2022-08-21T02:36:12;10.53;;;7.87;;
16524;SDS011;8375;33.594;-117.718;2022-08-21T02:38:41;13.20;;;8.00;;
16524;SDS011;8375;33.594;-117.718;2022-08-21T02:41:12;12.03;;;7.67;;
16524;SDS011;8375;33.594;-117.718;2022-08-21T02:43:45;15.13;;;8.37;;
16524;SDS011;8375;33.594;-117.718;2022-08-21T02:46:16;15.57;;;7.70;;
16524;SDS011;8375;33.594;-117.718;2022-08-21T02:48:46;15.10;;;8.03;;
16524;SDS011;8375;33.594;-117.718;2022-08-21T02:51:15;12.43;;;8.23;;
16524;SDS011;8375;33.594;-117.718;2022-08-21T02:53:46;13.90;;;7.97;;
16524;SDS011;8375;33.594;-117.718;2022-08-21T02:56:17;14.33;;;7.93;;
16524;SDS011;8375;33.594;-117.718;2022-08-21T02:58:50;11.90;;;8.37;;
16524;SDS011;8375;33.594;-117.718;2022-08-21T03:01:19;17.20;;;8.67;;
16524;SDS011;8375;33.594;-117.718;2022-08-21T03:03:48;12.93;;;7.60;;
16524;SDS011;8375;33.594;-117.718;2022-08-21T03:06:17;13.53;;;7.97;;
16524;SDS011;8375;33.594;-117.718;2022-08-21T03:08:48;13.93;;;8.07;;
16524;SDS011;8375;33.594;-117.718;2022-08-21T03:11:17;10.80;;;7.43;;
16524;SDS011;8375;33.594;-117.718;2022-08-21T03:13:47;11.57;;;7.30;;
16524;SDS011;8375;33.594;-117.718;2022-08-21T03:16:21;11.50;;;7.53;;
16524;SDS011;8375;33.594;-117.718;2022-08-21T03:18:49;17.63;;;8.37;;
16524;SDS011;8375;33.594;-117.718;2022-08-21T03:21:18;12.20;;;8.30;;
16524;SDS011;8375;33.594;-117.718;2022-08-21T03:23:47;14.50;;;8.73;;
16524;SDS011;8375;33.594;-117.718;2022-08-21T03:26:16;17.80;;;8.57;;
16524;SDS011;8375;33.594;-117.718;2022-08-21T03:28:44;13.47;;;8.30;;
16524;SDS011;8375;33.594;-117.718;2022-08-21T03:31:15;14.33;;;8.37;;
16524;SDS011;8375;33.594;-117.718;2022-08-21T03:33:44;13.73;;;8.60;;
16524;SDS011;8375;33.594;-117.718;2022-08-21T03:36:13;10.93;;;7.77;;
16524;SDS011;8375;33.594;-117.718;2022-08-21T03:38:42;14.17;;;8.20;;
16524;SDS011;8375;33.594;-117.718;2022-08-21T03:41:11;12.87;;;8.70;;
16524;SDS011;8375;33.594;-117.718;2022-08-21T03:43:40;15.27;;;8.67;;
16524;SDS011;8375;33.594;-117.718;2022-08-21T03:46:10;14.00;;;9.13;;
16524;SDS011;8375;33.594;-117.718;2022-08-21T03:48:40;17.33;;;8.83;;
16524;SDS011;8375;33.594;-117.718;2022-08-21T03:51:09;13.87;;;8.63;;
16524;SDS011;8375;33.594;-117.718;2022-08-21T03:53:38;15.13;;;9.17;;
16524;SDS011;8375;33.594;-117.718;2022-08-21T03:56:07;15.20;;;8.50;;
16524;SDS011;8375;33.594;-117.718;2022-08-21T03:58:36;16.70;;;8.70;;
16524;SDS011;8375;33.594;-117.718;2022-08-21T04:01:05;13.17;;;8.20;;
16524;SDS011;8375;33.594;-117.718;2022-08-21T04:03:34;15.70;;;9.00;;
16524;SDS011;8375;33.594;-117.718;2022-08-21T04:06:08;13.73;;;8.50;;
16524;SDS011;8375;33.594;-117.718;2022-08-21T04:08:36;12.83;;;8.43;;
16524;SDS011;8375;33.594;-117.718;2022-08-21T04:11:07;11.47;;;8.17;;
16524;SDS011;8375;33.594;-117.718;2022-08-21T04:13:37;13.63;;;8.70;;
16524;SDS011;8375;33.594;-117.718;2022-08-21T04:16:06;16.67;;;9.50;;
16524;SDS011;8375;33.594;-117.718;2022-08-21T04:18:35;15.93;;;8.17;;
16524;SDS011;8375;33.594;-117.718;2022-08-21T04:21:04;14.17;;;8.93;;
16524;SDS011;8375;33.594;-117.718;2022-08-21T04:23:35;18.47;;;9.23;;
16524;SDS011;8375;33.594;-117.718;2022-08-21T04:26:04;14.07;;;8.87;;
16524;SDS011;8375;33.594;-117.718;2022-08-21T04:28:33;14.90;;;8.83;;
16524;SDS011;8375;33.594;-117.718;2022-08-21T04:31:01;16.53;;;9.07;;
16524;SDS011;8375;33.594;-117.718;2022-08-21T04:33:30;15.40;;;8.70;;
16524;SDS011;8375;33.594;-117.718;2022-08-21T04:35:59;15.20;;;8.97;;
16524;SDS011;8375;33.594;-117.718;2022-08-21T04:38:28;12.87;;;8.27;;
16524;SDS011;8375;33.594;-117.718;2022-08-21T04:40:58;15.87;;;8.73;;
16524;SDS011;8375;33.594;-117.718;2022-08-21T04:43:27;15.17;;;8.63;;
16524;SDS011;8375;33.594;-117.718;2022-08-21T04:45:56;15.30;;;8.97;;
16524;SDS011;8375;33.594;-117.718;2022-08-21T04:48:26;19.77;;;8.97;;
16524;SDS011;8375;33.594;-117.718;2022-08-21T04:50:55;15.27;;;9.07;;
16524;SDS011;8375;33.594;-117.718;2022-08-21T04:53:30;14.53;;;8.67;;
16524;SDS011;8375;33.594;-117.718;2022-08-21T04:56:04;16.30;;;9.13;;
16524;SDS011;8375;33.594;-117.718;2022-08-21T04:58:36;14.53;;;8.63;;
16524;SDS011;8375;33.594;-117.718;2022-08-21T05:01:07;14.40;;;9.37;;
16524;SDS011;8375;33.594;-117.718;2022-08-21T05:03:40;13.97;;;9.07;;
16524;SDS011;8375;33.594;-117.718;2022-08-21T05:06:10;16.80;;;9.60;;
16524;SDS011;8375;33.594;-117.718;2022-08-21T05:08:40;19.13;;;10.70;;
16524;SDS011;8375;33.594;-117.718;2022-08-21T05:11:12;15.33;;;8.97;;
16524;SDS011;8375;33.594;-117.718;2022-08-21T05:13:41;16.30;;;9.33;;
16524;SDS011;8375;33.594;-117.718;2022-08-21T05:16:10;14.30;;;8.93;;
16524;SDS011;8375;33.594;-117.718;2022-08-21T05:18:38;16.03;;;9.20;;
16524;SDS011;8375;33.594;-117.718;2022-08-21T05:21:07;18.63;;;10.20;;
16524;SDS011;8375;33.594;-117.718;2022-08-21T05:23:36;15.63;;;9.83;;
16524;SDS011;8375;33.594;-117.718;2022-08-21T05:26:04;16.03;;;9.27;;
16524;SDS011;8375;33.594;-117.718;2022-08-21T05:28:35;17.93;;;9.53;;
16524;SDS011;8375;33.594;-117.718;2022-08-21T05:31:03;16.90;;;9.43;;
16524;SDS011;8375;33.594;-117.718;2022-08-21T05:33:32;14.47;;;9.23;;
16524;SDS011;8375;33.594;-117.718;2022-08-21T05:36:01;17.43;;;9.47;;
16524;SDS011;8375;33.594;-117.718;2022-08-21T05:38:30;16.47;;;9.70;;
16524;SDS011;8375;33.594;-117.718;2022-08-21T05:41:00;14.53;;;9.17;;
16524;SDS011;8375;33.594;-117.718;2022-08-21T05:43:29;16.13;;;9.23;;
16524;SDS011;8375;33.594;-117.718;2022-08-21T05:46:03;13.67;;;9.80;;
16524;SDS011;8375;33.594;-117.718;2022-08-21T05:48:33;17.10;;;9.60;;
16524;SDS011;8375;33.594;-117.718;2022-08-21T05:51:04;15.17;;;10.33;;
16524;SDS011;8375;33.594;-117.718;2022-08-21T05:53:34;14.63;;;9.20;;
16524;SDS011;8375;33.594;-117.718;2022-08-21T05:56:03;15.90;;;9.03;;
16524;SDS011;8375;33.594;-117.718;2022-08-21T05:58:32;16.80;;;9.10;;
16524;SDS011;8375;33.594;-117.718;2022-08-21T06:01:01;16.50;;;9.83;;
16524;SDS011;8375;33.594;-117.718;2022-08-21T06:03:34;17.33;;;9.90;;
16524;SDS011;8375;33.594;-117.718;2022-08-21T06:06:05;15.40;;;9.40;;
16524;SDS011;8375;33.594;-117.718;2022-08-21T06:08:35;14.73;;;9.63;;
16524;SDS011;8375;33.594;-117.718;2022-08-21T06:11:05;17.47;;;10.00;;
16524;SDS011;8375;33.594;-117.718;2022-08-21T06:13:34;17.40;;;9.37;;
16524;SDS011;8375;33.594;-117.718;2022-08-21T06:16:06;12.87;;;9.20;;
16524;SDS011;8375;33.594;-117.718;2022-08-21T06:18:37;13.43;;;9.80;;
16524;SDS011;8375;33.594;-117.718;2022-08-21T06:21:06;18.70;;;9.87;;
16524;SDS011;8375;33.594;-117.718;2022-08-21T06:23:35;17.53;;;9.73;;
16524;SDS011;8375;33.594;-117.718;2022-08-21T06:26:04;18.10;;;10.13;;
16524;SDS011;8375;33.594;-117.718;2022-08-21T06:28:35;19.30;;;9.40;;
16524;SDS011;8375;33.594;-117.718;2022-08-21T06:31:11;16.90;;;9.67;;
16524;SDS011;8375;33.594;-117.718;2022-08-21T06:33:41;17.03;;;9.87;;
16524;SDS011;8375;33.594;-117.718;2022-08-21T06:36:10;19.87;;;10.13;;
16524;SDS011;8375;33.594;-117.718;2022-08-21T06:38:39;18.60;;;9.33;;
16524;SDS011;8375;33.594;-117.718;2022-08-21T06:41:08;13.87;;;9.40;;
16524;SDS011;8375;33.594;-117.718;2022-08-21T06:43:36;15.53;;;9.03;;
16524;SDS011;8375;33.594;-117.718;2022-08-21T06:46:05;14.03;;;9.07;;
16524;SDS011;8375;33.594;-117.718;2022-08-21T06:48:36;20.53;;;10.03;;
16524;SDS011;8375;33.594;-117.718;2022-08-21T06:51:05;15.60;;;10.00;;
16524;SDS011;8375;33.594;-117.718;2022-08-21T06:53:39;16.97;;;8.67;;
16524;SDS011;8375;33.594;-117.718;2022-08-21T06:56:15;17.03;;;9.60;;
16524;SDS011;8375;33.594;-117.718;2022-08-21T06:58:45;14.13;;;9.13;;
16524;SDS011;8375;33.594;-117.718;2022-08-21T07:01:17;14.50;;;9.17;;
16524;SDS011;8375;33.594;-117.718;2022-08-21T07:03:50;15.83;;;9.67;;
16524;SDS011;8375;33.594;-117.718;2022-08-21T07:06:19;15.17;;;10.07;;
16524;SDS011;8375;33.594;-117.718;2022-08-21T07:08:47;12.57;;;9.30;;
16524;SDS011;8375;33.594;-117.718;2022-08-21T07:11:19;15.53;;;9.70;;
16524;SDS011;8375;33.594;-117.718;2022-08-21T07:13:50;20.20;;;10.30;;
16524;SDS011;8375;33.594;-117.718;2022-08-21T07:16:20;13.40;;;9.27;;
16524;SDS011;8375;33.594;-117.718;2022-08-21T07:18:51;16.57;;;9.53;;
16524;SDS011;8375;33.594;-117.718;2022-08-21T07:21:19;14.47;;;8.93;;
16524;SDS011;8375;33.594;-117.718;2022-08-21T07:23:49;14.73;;;9.60;;
16524;SDS011;8375;33.594;-117.718;2022-08-21T07:26:19;17.17;;;10.33;;
16524;SDS011;8375;33.594;-117.718;2022-08-21T07:28:48;17.40;;;9.53;;
16524;SDS011;8375;33.594;-117.718;2022-08-21T07:31:18;16.33;;;9.87;;
16524;SDS011;8375;33.594;-117.718;2022-08-21T07:33:48;14.83;;;9.13;;
16524;SDS011;8375;33.594;-117.718;2022-08-21T07:36:19;13.67;;;9.73;;
16524;SDS011;8375;33.594;-117.718;2022-08-21T07:38:48;18.53;;;9.70;;
16524;SDS011;8375;33.594;-117.718;2022-08-21T07:41:18;15.73;;;9.43;;
16524;SDS011;8375;33.594;-117.718;2022-08-21T07:43:48;21.40;;;10.27;;
16524;SDS011;8375;33.594;-117.718;2022-08-21T07:46:17;16.10;;;10.17;;
16524;SDS011;8375;33.594;-117.718;2022-08-21T07:48:46;13.57;;;9.10;;
16524;SDS011;8375;33.594;-117.718;2022-08-21T07:51:17;17.27;;;9.57;;
16524;SDS011;8375;33.594;-117.718;2022-08-21T07:53:48;15.30;;;9.63;;
16524;SDS011;8375;33.594;-117.718;2022-08-21T07:56:17;16.63;;;9.90;;
16524;SDS011;8375;33.594;-117.718;2022-08-21T07:58:46;14.30;;;9.73;;
16524;SDS011;8375;33.594;-117.718;2022-08-21T08:01:15;20.93;;;10.83;;
16524;SDS011;8375;33.594;-117.718;2022-08-21T08:03:44;17.23;;;9.90;;
16524;SDS011;8375;33.594;-117.718;2022-08-21T08:06:13;17.50;;;10.00;;
16524;SDS011;8375;33.594;-117.718;2022-08-21T08:08:46;13.67;;;10.00;;
16524;SDS011;8375;33.594;-117.718;2022-08-21T08:11:15;16.93;;;10.00;;
16524;SDS011;8375;33.594;-117.718;2022-08-21T08:13:45;15.13;;;9.83;;
16524;SDS011;8375;33.594;-117.718;2022-08-21T08:16:15;19.07;;;10.60;;
16524;SDS011;8375;33.594;-117.718;2022-08-21T08:18:44;18.87;;;10.43;;
16524;SDS011;8375;33.594;-117.718;2022-08-21T08:21:14;17.17;;;10.20;;
16524;SDS011;8375;33.594;-117.718;2022-08-21T08:23:46;18.90;;;10.00;;
16524;SDS011;8375;33.594;-117.718;2022-08-21T08:26:14;14.97;;;10.10;;
16524;SDS011;8375;33.594;-117.718;2022-08-21T08:28:43;17.43;;;9.90;;
16524;SDS011;8375;33.594;-117.718;2022-08-21T08:31:13;19.27;;;11.10;;
16524;SDS011;8375;33.594;-117.718;2022-08-21T08:33:41;22.77;;;10.63;;
16524;SDS011;8375;33.594;-117.718;2022-08-21T08:36:14;14.03;;;10.23;;
16524;SDS011;8375;33.594;-117.718;2022-08-21T08:38:46;17.47;;;10.33;;
16524;SDS011;8375;33.594;-117.718;2022-08-21T08:41:15;16.87;;;11.00;;
16524;SDS011;8375;33.594;-117.718;2022-08-21T08:43:48;17.60;;;10.87;;
16524;SDS011;8375;33.594;-117.718;2022-08-21T08:46:20;21.63;;;11.63;;
16524;SDS011;8375;33.594;-117.718;2022-08-21T08:48:58;20.80;;;11.63;;
16524;SDS011;8375;33.594;-117.718;2022-08-21T08:51:34;18.57;;;11.20;;
16524;SDS011;8375;33.594;-117.718;2022-08-21T08:54:12;17.53;;;10.53;;
16524;SDS011;8375;33.594;-117.718;2022-08-21T08:56:43;17.30;;;11.30;;
16524;SDS011;8375;33.594;-117.718;2022-08-21T08:59:14;18.63;;;11.27;;
16524;SDS011;8375;33.594;-117.718;2022-08-21T09:01:46;17.77;;;11.40;;
16524;SDS011;8375;33.594;-117.718;2022-08-21T09:04:16;14.03;;;10.83;;
16524;SDS011;8375;33.594;-117.718;2022-08-21T09:06:57;15.57;;;11.30;;
16524;SDS011;8375;33.594;-117.718;2022-08-21T09:09:40;15.23;;;10.50;;
16524;SDS011;8375;33.594;-117.718;2022-08-21T09:12:17;20.13;;;11.50;;
16524;SDS011;8375;33.594;-117.718;2022-08-21T09:14:58;16.57;;;10.53;;
16524;SDS011;8375;33.594;-117.718;2022-08-21T09:17:37;19.03;;;10.60;;
16524;SDS011;8375;33.594;-117.718;2022-08-21T09:20:18;16.60;;;11.00;;
16524;SDS011;8375;33.594;-117.718;2022-08-21T09:22:56;17.97;;;10.87;;
16524;SDS011;8375;33.594;-117.718;2022-08-21T09:25:32;23.27;;;12.07;;
16524;SDS011;8375;33.594;-117.718;2022-08-21T09:28:07;17.87;;;11.17;;
16524;SDS011;8375;33.594;-117.718;2022-08-21T09:30:38;18.30;;;11.47;;
16524;SDS011;8375;33.594;-117.718;2022-08-21T09:33:09;17.13;;;11.00;;
16524;SDS011;8375;33.594;-117.718;2022-08-21T09:35:48;20.23;;;11.30;;
16524;SDS011;8375;33.594;-117.718;2022-08-21T09:38:24;19.33;;;11.10;;
16524;SDS011;8375;33.594;-117.718;2022-08-21T09:40:59;17.67;;;11.50;;
16524;SDS011;8375;33.594;-117.718;2022-08-21T09:43:31;20.63;;;11.43;;
16524;SDS011;8375;33.594;-117.718;2022-08-21T09:46:07;14.90;;;10.93;;
16524;SDS011;8375;33.594;-117.718;2022-08-21T09:48:44;19.07;;;11.67;;
16524;SDS011;8375;33.594;-117.718;2022-08-21T09:51:15;19.50;;;11.17;;
16524;SDS011;8375;33.594;-117.718;2022-08-21T09:53:46;18.57;;;11.60;;
16524;SDS011;8375;33.594;-117.718;2022-08-21T09:56:21;16.30;;;10.90;;
16524;SDS011;8375;33.594;-117.718;2022-08-21T09:59:15;19.43;;;10.90;;
16524;SDS011;8375;33.594;-117.718;2022-08-21T10:01:47;17.43;;;11.10;;
16524;SDS011;8375;33.594;-117.718;2022-08-21T10:04:22;19.33;;;11.17;;
16524;SDS011;8375;33.594;-117.718;2022-08-21T10:06:51;18.63;;;11.83;;
16524;SDS011;8375;33.594;-117.718;2022-08-21T10:09:20;20.03;;;12.03;;
16524;SDS011;8375;33.594;-117.718;2022-08-21T10:11:56;18.73;;;11.97;;
16524;SDS011;8375;33.594;-117.718;2022-08-21T10:14:40;18.87;;;11.30;;
16524;SDS011;8375;33.594;-117.718;2022-08-21T10:17:24;18.87;;;10.93;;
16524;SDS011;8375;33.594;-117.718;2022-08-21T10:20:02;22.63;;;12.07;;
16524;SDS011;8375;33.594;-117.718;2022-08-21T10:22:37;20.73;;;11.23;;
16524;SDS011;8375;33.594;-117.718;2022-08-21T10:25:14;16.23;;;11.07;;
16524;SDS011;8375;33.594;-117.718;2022-08-21T10:27:53;19.87;;;12.40;;
16524;SDS011;8375;33.594;-117.718;2022-08-21T10:30:31;17.77;;;11.73;;
16524;SDS011;8375;33.594;-117.718;2022-08-21T10:33:09;18.00;;;10.93;;
16524;SDS011;8375;33.594;-117.718;2022-08-21T10:35:45;18.43;;;11.07;;
16524;SDS011;8375;33.594;-117.718;2022-08-21T10:41:18;20.37;;;11.20;;
16524;SDS011;8375;33.594;-117.718;2022-08-21T10:43:59;17.80;;;11.67;;
16524;SDS011;8375;33.594;-117.718;2022-08-21T10:46:42;17.70;;;11.40;;
16524;SDS011;8375;33.594;-117.718;2022-08-21T10:49:20;18.40;;;12.23;;
16524;SDS011;8375;33.594;-117.718;2022-08-21T10:52:02;16.57;;;11.37;;
16524;SDS011;8375;33.594;-117.718;2022-08-21T10:54:48;19.30;;;11.60;;
16524;SDS011;8375;33.594;-117.718;2022-08-21T10:57:22;19.37;;;11.83;;
16524;SDS011;8375;33.594;-117.718;2022-08-21T11:00:03;14.70;;;11.67;;
16524;SDS011;8375;33.594;-117.718;2022-08-21T11:02:37;19.17;;;11.30;;
16524;SDS011;8375;33.594;-117.718;2022-08-21T11:05:11;18.03;;;11.50;;
16524;SDS011;8375;33.594;-117.718;2022-08-21T11:07:44;21.90;;;11.77;;
16524;SDS011;8375;33.594;-117.718;2022-08-21T11:10:17;19.70;;;12.57;;
16524;SDS011;8375;33.594;-117.718;2022-08-21T11:12:50;16.63;;;11.90;;
16524;SDS011;8375;33.594;-117.718;2022-08-21T11:15:28;16.47;;;11.03;;
16524;SDS011;8375;33.594;-117.718;2022-08-21T11:18:09;15.97;;;11.20;;
16524;SDS011;8375;33.594;-117.718;2022-08-21T11:20:46;16.97;;;11.63;;
16524;SDS011;8375;33.594;-117.718;2022-08-21T11:23:21;15.60;;;11.10;;
16524;SDS011;8375;33.594;-117.718;2022-08-21T11:25:58;21.07;;;11.27;;
16524;SDS011;8375;33.594;-117.718;2022-08-21T11:28:30;16.47;;;11.50;;
16524;SDS011;8375;33.594;-117.718;2022-08-21T11:31:05;16.90;;;11.87;;
16524;SDS011;8375;33.594;-117.718;2022-08-21T11:33:46;15.30;;;11.47;;
16524;SDS011;8375;33.594;-117.718;2022-08-21T11:36:25;17.23;;;11.20;;
16524;SDS011;8375;33.594;-117.718;2022-08-21T11:39:02;22.00;;;11.67;;
16524;SDS011;8375;33.594;-117.718;2022-08-21T11:41:42;17.97;;;11.70;;
16524;SDS011;8375;33.594;-117.718;2022-08-21T11:44:21;19.57;;;12.37;;
16524;SDS011;8375;33.594;-117.718;2022-08-21T11:47:00;20.27;;;11.97;;
16524;SDS011;8375;33.594;-117.718;2022-08-21T11:49:39;19.43;;;11.93;;
16524;SDS011;8375;33.594;-117.718;2022-08-21T11:52:20;21.87;;;11.63;;
16524;SDS011;8375;33.594;-117.718;2022-08-21T11:54:54;16.47;;;12.20;;
16524;SDS011;8375;33.594;-117.718;2022-08-21T11:57:27;17.43;;;12.17;;
16524;SDS011;8375;33.594;-117.718;2022-08-21T12:00:00;20.13;;;12.43;;
16524;SDS011;8375;33.594;-117.718;2022-08-21T12:02:38;18.40;;;12.13;;
16524;SDS011;8375;33.594;-117.718;2022-08-21T12:05:11;17.97;;;11.83;;
16524;SDS011;8375;33.594;-117.718;2022-08-21T12:08:00;21.93;;;12.33;;
16524;SDS011;8375;33.594;-117.718;2022-08-21T12:10:32;16.07;;;11.77;;
16524;SDS011;8375;33.594;-117.718;2022-08-21T12:13:06;22.37;;;11.93;;
16524;SDS011;8375;33.594;-117.718;2022-08-21T12:15:37;21.60;;;12.30;;
16524;SDS011;8375;33.594;-117.718;2022-08-21T12:18:18;17.37;;;11.93;;
16524;SDS011;8375;33.594;-117.718;2022-08-21T12:20:57;18.30;;;12.03;;
16524;SDS011;8375;33.594;-117.718;2022-08-21T12:23:30;18.83;;;12.27;;
16524;SDS011;8375;33.594;-117.718;2022-08-21T12:26:09;15.97;;;11.90;;
16524;SDS011;8375;33.594;-117.718;2022-08-21T12:28:50;16.37;;;11.60;;
16524;SDS011;8375;33.594;-117.718;2022-08-21T12:31:30;17.37;;;12.10;;
16524;SDS011;8375;33.594;-117.718;2022-08-21T12:34:01;19.73;;;12.20;;
16524;SDS011;8375;33.594;-117.718;2022-08-21T12:36:40;14.67;;;11.83;;
16524;SDS011;8375;33.594;-117.718;2022-08-21T12:39:13;16.93;;;11.70;;
16524;SDS011;8375;33.594;-117.718;2022-08-21T12:41:46;19.47;;;12.33;;
16524;SDS011;8375;33.594;-117.718;2022-08-21T12:44:17;18.70;;;12.47;;
16524;SDS011;8375;33.594;-117.718;2022-08-21T12:46:55;18.13;;;12.00;;
16524;SDS011;8375;33.594;-117.718;2022-08-21T12:49:31;21.37;;;12.20;;
16524;SDS011;8375;33.594;-117.718;2022-08-21T12:52:05;19.03;;;12.30;;
16524;SDS011;8375;33.594;-117.718;2022-08-21T12:54:42;18.87;;;13.37;;
16524;SDS011;8375;33.594;-117.718;2022-08-21T12:57:17;20.63;;;12.57;;
16524;SDS011;8375;33.594;-117.718;2022-08-21T12:59:52;19.23;;;12.17;;
16524;SDS011;8375;33.594;-117.718;2022-08-21T13:02:22;17.63;;;11.83;;
16524;SDS011;8375;33.594;-117.718;2022-08-21T13:04:57;20.20;;;11.97;;
16524;SDS011;8375;33.594;-117.718;2022-08-21T13:07:29;21.50;;;11.93;;
16524;SDS011;8375;33.594;-117.718;2022-08-21T13:10:00;25.50;;;12.13;;
16524;SDS011;8375;33.594;-117.718;2022-08-21T13:12:31;22.27;;;12.20;;
16524;SDS011;8375;33.594;-117.718;2022-08-21T13:15:02;21.27;;;12.67;;
16524;SDS011;8375;33.594;-117.718;2022-08-21T13:17:34;20.70;;;12.17;;
16524;SDS011;8375;33.594;-117.718;2022-08-21T13:20:08;20.13;;;12.40;;
16524;SDS011;8375;33.594;-117.718;2022-08-21T13:22:45;18.00;;;11.43;;
16524;SDS011;8375;33.594;-117.718;2022-08-21T13:25:15;18.90;;;11.37;;
16524;SDS011;8375;33.594;-117.718;2022-08-21T13:27:55;20.33;;;12.23;;
16524;SDS011;8375;33.594;-117.718;2022-08-21T13:30:26;20.37;;;12.90;;
16524;SDS011;8375;33.594;-117.718;2022-08-21T13:32:56;19.37;;;11.93;;
16524;SDS011;8375;33.594;-117.718;2022-08-21T13:35:28;20.43;;;12.27;;
16524;SDS011;8375;33.594;-117.718;2022-08-21T13:38:03;22.33;;;12.63;;
16524;SDS011;8375;33.594;-117.718;2022-08-21T13:40:38;21.43;;;12.20;;
16524;SDS011;8375;33.594;-117.718;2022-08-21T13:43:10;20.90;;;12.20;;
16524;SDS011;8375;33.594;-117.718;2022-08-21T13:45:47;16.00;;;11.10;;
16524;SDS011;8375;33.594;-117.718;2022-08-21T13:48:17;20.37;;;11.80;;
16524;SDS011;8375;33.594;-117.718;2022-08-21T13:50:48;20.73;;;11.53;;
16524;SDS011;8375;33.594;-117.718;2022-08-21T13:53:22;18.23;;;11.97;;
16524;SDS011;8375;33.594;-117.718;2022-08-21T13:55:56;18.73;;;11.73;;
16524;SDS011;8375;33.594;-117.718;2022-08-21T13:58:30;15.73;;;11.43;;
16524;SDS011;8375;33.594;-117.718;2022-08-21T14:01:00;17.13;;;11.43;;
16524;SDS011;8375;33.594;-117.718;2022-08-21T14:03:31;19.00;;;11.77;;
16524;SDS011;8375;33.594;-117.718;2022-08-21T14:06:03;19.73;;;11.57;;
16524;SDS011;8375;33.594;-117.718;2022-08-21T14:08:40;20.77;;;12.13;;
16524;SDS011;8375;33.594;-117.718;2022-08-21T14:11:10;21.77;;;12.10;;
16524;SDS011;8375;33.594;-117.718;2022-08-21T14:13:42;25.50;;;12.63;;
16524;SDS011;8375;33.594;-117.718;2022-08-21T14:16:15;21.73;;;11.70;;
16524;SDS011;8375;33.594;-117.718;2022-08-21T14:18:46;21.83;;;12.33;;
16524;SDS011;8375;33.594;-117.718;2022-08-21T14:21:28;19.23;;;12.30;;
16524;SDS011;8375;33.594;-117.718;2022-08-21T14:24:03;19.63;;;12.50;;
16524;SDS011;8375;33.594;-117.718;2022-08-21T14:26:35;17.87;;;12.83;;
16524;SDS011;8375;33.594;-117.718;2022-08-21T14:29:07;19.13;;;12.87;;
16524;SDS011;8375;33.594;-117.718;2022-08-21T14:31:36;17.80;;;11.77;;
16524;SDS011;8375;33.594;-117.718;2022-08-21T14:34:05;19.80;;;12.47;;
16524;SDS011;8375;33.594;-117.718;2022-08-21T14:36:36;16.80;;;11.87;;